Terminal Aerodrome Forecast
Issued by NWS Wilmington, OH

Current Version | Previous Version | Graphics & Text | Print | Product List | Glossary On
Versions: 1 2 3 4 5 6 7 8 9 10 11 12 13 14 15 16 17 18 19 20 21 22 23 24
890
FTUS41 KILN 300258 AAA
TAFDAY
TAF AMD
KDAY 300258Z 3003/3024 02006KT P6SM FEW018 OVC160
     FM300600 06006KT P6SM OVC100
     FM301400 11009KT 4SM -SHRA BR OVC025
     FM301800 11012G21KT 2SM -SHRA BR OVC015=

USA.gov is the U.S. government's official web portal to all federal, state and local government web resources and services.